createdAt,value
2023-07-11T00:01:34.210Z,100.00
2023-07-11T00:04:02.849Z,100.00
2023-07-11T00:06:31.455Z,100.00
2023-07-11T00:08:59.721Z,100.00
2023-07-11T00:11:28.193Z,100.00
2023-07-11T00:14:00.734Z,100.00
2023-07-11T00:16:29.202Z,100.00
2023-07-11T00:18:57.456Z,100.00
2023-07-11T00:21:25.838Z,100.00
2023-07-11T00:23:54.186Z,100.00
2023-07-11T00:26:22.587Z,100.00
2023-07-11T00:28:50.885Z,100.00
2023-07-11T00:31:21.749Z,100.00
2023-07-11T00:33:50.096Z,100.00
2023-07-11T00:36:18.458Z,96.40
2023-07-11T00:38:46.842Z,95.97
2023-07-11T00:41:15.105Z,100.00
2023-07-11T00:43:43.356Z,100.00
2023-07-11T00:46:16.387Z,100.00
2023-07-11T00:48:49.832Z,100.00
2023-07-11T00:51:22.259Z,100.00
2023-07-11T00:53:51.662Z,100.00
2023-07-11T00:56:25.854Z,100.00
2023-07-11T00:58:55.766Z,100.00
2023-07-11T01:01:24.671Z,100.00
2023-07-11T01:03:57.010Z,100.00
2023-07-11T01:06:29.171Z,96.76
2023-07-11T01:08:59.704Z,100.00
2023-07-11T01:11:30.421Z,100.00
2023-07-11T01:13:59.201Z,100.00
2023-07-11T01:16:28.708Z,100.00
2023-07-11T01:18:58.457Z,100.00
2023-07-11T01:21:28.197Z,100.00
2023-07-11T01:23:56.569Z,100.00
2023-07-11T01:26:24.989Z,100.00
2023-07-11T01:28:53.255Z,100.00
2023-07-11T01:31:21.543Z,100.00
2023-07-11T01:33:49.902Z,100.00
2023-07-11T01:36:18.556Z,100.00
2023-07-11T01:38:48.301Z,100.00
2023-07-11T01:41:16.606Z,100.00
2023-07-11T01:43:45.084Z,100.00
2023-07-11T01:46:13.670Z,100.00
2023-07-11T01:48:41.929Z,100.00
2023-07-11T01:51:10.221Z,100.00
2023-07-11T01:53:38.523Z,100.00
2023-07-11T01:56:08.693Z,100.00
2023-07-11T01:58:39.426Z,100.00
2023-07-11T02:01:09.919Z,100.00
2023-07-11T02:03:38.278Z,100.00
2023-07-11T02:06:06.994Z,100.00
2023-07-11T02:08:35.838Z,100.00
2023-07-11T02:11:04.105Z,100.00
2023-07-11T02:13:33.969Z,100.00
2023-07-11T02:16:03.049Z,100.00
2023-07-11T02:18:31.998Z,100.00
2023-07-11T02:21:00.640Z,100.00
2023-07-11T02:23:29.538Z,100.00
2023-07-11T02:25:58.098Z,100.00
2023-07-11T02:28:26.560Z,100.00
2023-07-11T02:30:57.811Z,100.00
2023-07-11T02:33:26.693Z,100.00
2023-07-11T02:35:55.340Z,100.00
2023-07-11T02:38:23.973Z,100.00
2023-07-11T02:40:52.682Z,100.00
2023-07-11T02:43:22.883Z,100.00
2023-07-11T02:45:52.814Z,100.00
2023-07-11T02:48:23.299Z,100.00
2023-07-11T02:50:51.999Z,100.00
2023-07-11T02:53:20.838Z,100.00
2023-07-11T02:55:52.264Z,99.93
2023-07-11T02:58:20.718Z,97.70
2023-07-11T03:00:50.037Z,96.70
2023-07-11T03:03:18.457Z,96.39
2023-07-11T03:05:49.141Z,96.83
2023-07-11T03:08:17.960Z,96.90
2023-07-11T03:10:46.704Z,99.78
2023-07-11T03:13:15.709Z,98.55
2023-07-11T03:15:44.135Z,99.18
2023-07-11T03:18:13.077Z,95.42
2023-07-11T03:20:41.961Z,88.96
2023-07-11T03:23:15.136Z,82.19
2023-07-11T03:25:44.138Z,80.52
2023-07-11T03:28:12.430Z,77.08
2023-07-11T03:30:40.749Z,73.50
2023-07-11T03:33:09.007Z,72.70
2023-07-11T03:35:37.809Z,74.95
2023-07-11T03:38:06.771Z,75.00
2023-07-11T03:40:36.634Z,71.48
2023-07-11T03:43:04.967Z,65.04
2023-07-11T03:45:33.467Z,61.26
2023-07-11T03:48:01.799Z,58.15
2023-07-11T03:50:30.207Z,55.63
2023-07-11T03:52:58.463Z,52.78
2023-07-11T03:55:26.943Z,51.56
2023-07-11T03:57:56.822Z,50.16
2023-07-11T04:00:25.153Z,48.65
2023-07-11T04:02:53.532Z,47.77
2023-07-11T04:05:21.888Z,46.15
2023-07-11T04:07:50.190Z,48.48
2023-07-11T04:10:18.708Z,52.88
2023-07-11T04:12:46.962Z,55.07
2023-07-11T04:15:16.814Z,50.64
2023-07-11T04:17:45.960Z,46.63
2023-07-11T04:20:14.699Z,43.52
2023-07-11T04:22:43.083Z,42.20
2023-07-11T04:25:11.488Z,40.70
2023-07-11T04:27:39.969Z,40.52
2023-07-11T04:30:10.235Z,40.15
2023-07-11T04:32:41.257Z,42.43
2023-07-11T04:35:15.000Z,41.07
2023-07-11T04:37:43.621Z,40.66
2023-07-11T04:40:12.779Z,40.94
2023-07-11T04:42:41.150Z,40.37
2023-07-11T04:45:11.498Z,39.85
2023-07-11T04:47:41.321Z,38.63
2023-07-11T04:50:10.772Z,38.53
2023-07-11T04:52:39.349Z,38.55
2023-07-11T04:55:08.835Z,37.92
2023-07-11T04:57:37.233Z,38.65
2023-07-11T05:00:07.339Z,37.98
2023-07-11T05:02:36.693Z,37.19
2023-07-11T05:05:06.936Z,37.03
2023-07-11T05:07:35.432Z,37.71
2023-07-11T05:10:03.713Z,35.35
2023-07-11T05:12:31.987Z,36.12
2023-07-11T05:15:00.274Z,35.52
2023-07-11T05:17:28.746Z,35.70
2023-07-11T05:19:57.108Z,35.13
2023-07-11T05:22:27.642Z,34.09
2023-07-11T05:24:56.703Z,34.34
2023-07-11T05:27:26.387Z,34.97
2023-07-11T05:29:54.629Z,33.87
2023-07-11T05:32:22.972Z,33.08
2023-07-11T05:34:51.316Z,34.18
2023-07-11T05:37:19.745Z,34.17
2023-07-11T05:39:50.064Z,34.13
2023-07-11T05:42:18.339Z,33.83
2023-07-11T05:44:47.044Z,33.75
2023-07-11T05:47:15.372Z,33.54
2023-07-11T05:49:43.827Z,32.81
2023-07-11T05:52:12.123Z,32.49
2023-07-11T05:54:40.459Z,31.60
2023-07-11T05:57:10.389Z,32.63
2023-07-11T05:59:39.034Z,32.53
2023-07-11T06:02:08.289Z,32.65
2023-07-11T06:04:36.548Z,32.27
2023-07-11T06:07:05.192Z,31.84
2023-07-11T06:09:35.520Z,30.82
2023-07-11T06:12:04.039Z,30.62
2023-07-11T06:14:33.735Z,30.70
2023-07-11T06:17:02.050Z,31.12
2023-07-11T06:19:30.694Z,30.58
2023-07-11T06:21:59.386Z,31.06
2023-07-11T06:24:27.756Z,32.18
2023-07-11T06:26:56.554Z,32.29
2023-07-11T06:29:27.862Z,31.84
2023-07-11T06:31:59.296Z,31.75
2023-07-11T06:34:27.783Z,31.76
2023-07-11T06:36:58.280Z,32.00
2023-07-11T06:39:27.000Z,32.50
2023-07-11T06:41:55.463Z,33.31
2023-07-11T06:44:24.526Z,32.77
2023-07-11T06:46:53.058Z,33.63
2023-07-11T06:49:23.197Z,33.57
2023-07-11T06:51:52.052Z,33.04
2023-07-11T06:54:20.489Z,32.44
2023-07-11T06:56:48.968Z,31.14
2023-07-11T06:59:22.020Z,31.24
2023-07-11T07:01:51.318Z,31.55
2023-07-11T07:04:19.680Z,31.49
2023-07-11T07:06:50.300Z,31.05
2023-07-11T07:09:19.905Z,30.96
2023-07-11T07:11:48.363Z,30.84
2023-07-11T07:14:17.090Z,30.92
2023-07-11T07:16:45.642Z,31.65
2023-07-11T07:19:14.349Z,32.23
2023-07-11T07:21:42.644Z,31.73
2023-07-11T07:24:12.524Z,32.07
2023-07-11T07:26:42.779Z,30.37
2023-07-11T07:29:11.283Z,31.30
2023-07-11T07:31:39.932Z,31.04
2023-07-11T07:34:09.496Z,31.83
2023-07-11T07:36:38.097Z,32.33
2023-07-11T07:39:06.465Z,32.99
2023-07-11T07:41:36.209Z,33.29
2023-07-11T07:44:04.800Z,33.02
2023-07-11T07:46:33.080Z,34.22
2023-07-11T07:49:01.445Z,34.35
2023-07-11T07:51:29.754Z,35.54
2023-07-11T07:53:58.006Z,36.31
2023-07-11T07:56:26.782Z,36.63
2023-07-11T07:58:56.417Z,35.43
2023-07-11T08:01:25.068Z,35.96
2023-07-11T08:03:53.441Z,35.84
2023-07-11T08:06:21.845Z,36.09
2023-07-11T08:08:51.805Z,36.10
2023-07-11T08:11:22.702Z,35.83
2023-07-11T08:13:59.360Z,35.03
2023-07-11T08:16:33.519Z,38.40
2023-07-11T08:19:06.841Z,39.87
2023-07-11T08:21:36.398Z,40.56
2023-07-11T08:24:06.509Z,41.46
2023-07-11T08:26:35.204Z,43.47
2023-07-11T08:29:12.650Z,43.33
2023-07-11T08:31:50.193Z,43.81
2023-07-11T08:34:18.454Z,44.51
2023-07-11T08:36:48.282Z,44.39
2023-07-11T08:39:16.923Z,45.16
2023-07-11T08:41:47.933Z,47.28
2023-07-11T08:44:20.207Z,47.24
2023-07-11T08:46:57.719Z,47.26
2023-07-11T08:49:32.031Z,48.96
2023-07-11T08:52:03.839Z,49.34
2023-07-11T08:54:36.035Z,48.69
2023-07-11T08:57:05.097Z,47.95
2023-07-11T08:59:49.182Z,48.29
2023-07-11T09:02:31.252Z,48.34
2023-07-11T09:04:59.794Z,46.36
2023-07-11T09:07:38.186Z,47.47
2023-07-11T09:10:38.290Z,46.18
2023-07-11T09:13:32.014Z,45.48
2023-07-11T09:16:08.545Z,46.75
2023-07-11T09:18:47.875Z,46.11
2023-07-11T09:21:21.588Z,48.03
2023-07-11T09:24:05.720Z,48.36
2023-07-11T09:26:49.734Z,49.31
2023-07-11T09:29:19.582Z,47.56
2023-07-11T09:31:53.242Z,46.33
2023-07-11T09:34:28.452Z,45.59
2023-07-11T09:37:01.162Z,45.46
2023-07-11T09:39:36.131Z,45.83
2023-07-11T09:42:11.764Z,45.61
2023-07-11T09:44:40.058Z,47.12
2023-07-11T09:47:19.283Z,48.50
2023-07-11T09:49:50.679Z,48.38
2023-07-11T09:52:27.943Z,46.97
2023-07-11T09:55:07.730Z,44.08
2023-07-11T09:57:37.312Z,46.58
2023-07-11T10:02:48.231Z,41.51
2023-07-11T10:05:20.454Z,40.75
2023-07-11T10:08:00.256Z,40.36
2023-07-11T10:10:28.976Z,39.27
2023-07-11T10:12:57.773Z,38.99
2023-07-11T10:15:29.512Z,40.37
2023-07-11T10:17:58.524Z,41.76
2023-07-11T10:20:29.972Z,41.99
2023-07-11T10:23:06.842Z,43.45
2023-07-11T10:25:35.380Z,54.58
2023-07-11T10:28:09.667Z,59.41
2023-07-11T10:30:41.216Z,55.54
2023-07-11T10:33:22.660Z,54.60
2023-07-11T10:35:58.473Z,52.23
2023-07-11T10:38:31.089Z,49.28
2023-07-11T10:41:05.018Z,46.23
2023-07-11T10:43:39.058Z,44.92
2023-07-11T10:46:17.874Z,43.09
2023-07-11T10:48:51.982Z,44.19
2023-07-11T10:51:28.742Z,44.02
2023-07-11T10:54:06.283Z,44.23
2023-07-11T10:56:39.908Z,45.34
2023-07-11T10:59:13.541Z,47.76
2023-07-11T11:01:52.204Z,46.76
2023-07-11T11:04:36.428Z,44.50
2023-07-11T11:07:12.434Z,44.52
2023-07-11T11:09:45.590Z,42.86
2023-07-11T11:12:24.334Z,42.49
2023-07-11T11:14:57.039Z,39.50
2023-07-11T11:17:41.125Z,36.05
2023-07-11T11:20:17.818Z,35.74
2023-07-11T11:23:04.524Z,35.94
2023-07-11T11:25:40.059Z,34.34
2023-07-11T11:28:19.962Z,34.97
2023-07-11T11:30:58.668Z,35.94
2023-07-11T11:33:43.414Z,37.45
2023-07-11T11:36:19.636Z,37.74
2023-07-11T11:39:05.884Z,37.44
2023-07-11T11:41:38.606Z,36.95
2023-07-11T11:49:41.344Z,40.24
2023-07-11T11:52:11.884Z,42.88
2023-07-11T11:54:46.223Z,48.98
2023-07-11T11:57:23.028Z,65.54
2023-07-11T11:59:52.289Z,76.73
2023-07-11T12:02:30.460Z,84.58
2023-07-11T12:05:02.489Z,82.81
2023-07-11T12:07:39.047Z,79.73
2023-07-11T12:10:20.999Z,90.04
2023-07-11T12:13:18.351Z,95.63
2023-07-11T12:15:51.097Z,94.17
2023-07-11T12:18:46.155Z,95.08
2023-07-11T12:21:47.541Z,100.00
2023-07-11T12:24:41.916Z,100.00
2023-07-11T12:28:01.764Z,100.00
2023-07-11T12:30:44.167Z,100.00
2023-07-11T12:33:37.579Z,100.00
2023-07-11T12:36:36.533Z,100.00
2023-07-11T12:39:35.968Z,93.16
2023-07-11T12:42:11.990Z,97.00
2023-07-11T12:44:40.644Z,90.96
2023-07-11T12:47:15.767Z,91.50
2023-07-11T12:49:45.886Z,92.73
2023-07-11T12:52:17.150Z,93.05
2023-07-11T12:54:46.461Z,95.08
2023-07-11T12:57:16.802Z,98.61
2023-07-11T12:59:45.193Z,98.16
2023-07-11T13:02:17.362Z,91.61
2023-07-11T13:04:52.936Z,88.69
2023-07-11T13:07:25.374Z,86.90
2023-07-11T13:09:55.784Z,99.24
2023-07-11T13:12:27.801Z,100.00
2023-07-11T13:14:56.050Z,100.00
2023-07-11T13:17:27.540Z,100.00
2023-07-11T13:20:02.776Z,100.00
2023-07-11T13:22:31.536Z,100.00
2023-07-11T13:25:01.122Z,100.00
2023-07-11T13:27:32.982Z,100.00
2023-07-11T13:30:01.264Z,100.00
2023-07-11T13:32:31.627Z,100.00
2023-07-11T13:37:49.042Z,100.00
2023-07-11T13:40:36.691Z,100.00
2023-07-11T13:43:15.691Z,100.00
2023-07-11T13:45:44.022Z,100.00
2023-07-11T13:48:16.953Z,100.00
2023-07-11T13:50:45.579Z,100.00
2023-07-11T13:53:16.767Z,100.00
2023-07-11T13:55:52.186Z,100.00
2023-07-11T13:58:21.225Z,100.00
2023-07-11T14:00:52.495Z,100.00
2023-07-11T14:03:24.960Z,100.00
2023-07-11T14:05:58.358Z,100.00
2023-07-11T14:08:27.929Z,100.00
2023-07-11T14:10:56.235Z,100.00
2023-07-11T14:13:28.157Z,100.00
2023-07-11T14:15:58.670Z,100.00
2023-07-11T14:18:28.435Z,100.00
2023-07-11T14:20:56.687Z,100.00
2023-07-11T14:23:26.829Z,100.00
2023-07-11T14:25:56.829Z,100.00
2023-07-11T14:28:25.834Z,100.00
2023-07-11T14:30:57.543Z,100.00
2023-07-11T14:33:30.482Z,100.00
2023-07-11T14:35:59.502Z,100.00
2023-07-11T14:38:29.235Z,100.00
2023-07-11T14:40:58.274Z,100.00
2023-07-11T14:43:27.975Z,100.00
2023-07-11T14:45:56.638Z,100.00
2023-07-11T14:48:27.702Z,100.00
2023-07-11T14:51:02.157Z,100.00
2023-07-11T14:53:37.277Z,100.00
2023-07-11T14:58:40.501Z,100.00
2023-07-11T15:01:13.547Z,100.00
2023-07-11T15:16:27.381Z,100.00
2023-07-11T15:18:55.900Z,100.00
2023-07-11T15:21:25.715Z,100.00
2023-07-11T15:23:53.981Z,100.00
2023-07-11T15:26:25.659Z,100.00
2023-07-11T15:28:54.662Z,100.00
2023-07-11T15:31:23.408Z,100.00
2023-07-11T15:33:51.960Z,100.00
2023-07-11T15:36:20.737Z,100.00
2023-07-11T15:38:51.257Z,100.00
2023-07-11T15:41:20.117Z,100.00
2023-07-11T15:43:48.725Z,100.00
2023-07-11T15:46:23.015Z,100.00
2023-07-11T15:48:54.327Z,100.00
2023-07-11T15:51:22.914Z,100.00
2023-07-11T15:53:53.083Z,100.00
2023-07-11T15:56:21.604Z,100.00
2023-07-11T15:58:50.016Z,100.00
2023-07-11T16:01:18.476Z,100.00
2023-07-11T16:03:46.781Z,100.00
2023-07-11T16:06:19.296Z,100.00
2023-07-11T16:08:47.601Z,100.00
2023-07-11T16:11:18.863Z,100.00
2023-07-11T16:13:47.510Z,100.00
2023-07-11T16:16:19.062Z,100.00
2023-07-11T16:18:47.723Z,100.00
2023-07-11T16:21:17.800Z,100.00
2023-07-11T16:23:46.110Z,100.00
2023-07-11T16:26:21.359Z,100.00
2023-07-11T16:28:51.275Z,100.00
2023-07-11T16:31:19.981Z,100.00
2023-07-11T16:33:48.430Z,100.00
2023-07-11T16:36:18.638Z,100.00
2023-07-11T16:38:46.886Z,100.00
2023-07-11T16:41:15.369Z,100.00
2023-07-11T16:43:45.232Z,100.00
2023-07-11T16:46:19.566Z,100.00
2023-07-11T16:48:48.073Z,100.00
2023-07-11T16:51:23.399Z,100.00
2023-07-11T16:53:51.867Z,100.00
2023-07-11T16:56:20.190Z,100.00
2023-07-11T16:58:49.920Z,100.00
2023-07-11T17:01:21.517Z,100.00
2023-07-11T17:03:50.619Z,100.00
2023-07-11T17:06:26.081Z,100.00
2023-07-11T17:08:54.884Z,100.00
2023-07-11T17:11:23.379Z,100.00
2023-07-11T17:13:53.187Z,100.00
2023-07-11T17:16:25.569Z,100.00
2023-07-11T17:18:54.183Z,100.00
2023-07-11T17:21:22.594Z,100.00
2023-07-11T17:23:51.049Z,100.00
2023-07-11T17:26:19.536Z,100.00
2023-07-11T17:28:47.827Z,100.00
2023-07-11T17:31:17.919Z,100.00
2023-07-11T17:33:46.705Z,100.00
2023-07-11T17:36:17.203Z,100.00
2023-07-11T17:38:47.132Z,100.00
2023-07-11T17:41:15.952Z,100.00
2023-07-11T17:43:46.614Z,100.00
2023-07-11T17:46:45.989Z,100.00
2023-07-11T17:49:11.576Z,100.00
2023-07-11T17:51:40.579Z,100.00
2023-07-11T17:54:09.044Z,100.00
2023-07-11T17:56:57.082Z,100.00
2023-07-11T17:59:27.279Z,100.00
2023-07-11T18:01:57.384Z,100.00
2023-07-11T18:04:25.885Z,100.00
2023-07-11T18:06:54.346Z,100.00
2023-07-11T18:09:22.672Z,100.00
2023-07-11T18:11:51.183Z,100.00
2023-07-11T18:14:19.447Z,100.00
2023-07-11T18:16:47.753Z,100.00
2023-07-11T18:19:17.433Z,100.00
2023-07-11T18:21:46.006Z,100.00
2023-07-11T18:24:14.391Z,100.00
2023-07-11T18:26:42.728Z,100.00
2023-07-11T18:29:11.637Z,100.00
2023-07-11T18:31:40.124Z,100.00
2023-07-11T18:34:08.552Z,100.00
2023-07-11T18:36:38.318Z,100.00
2023-07-11T18:39:06.645Z,100.00
2023-07-11T18:41:35.028Z,100.00
2023-07-11T18:44:03.429Z,100.00
2023-07-11T18:46:31.760Z,100.00
2023-07-11T18:49:00.131Z,100.00
2023-07-11T18:51:29.073Z,100.00
2023-07-11T18:53:59.036Z,100.00
2023-07-11T18:56:28.661Z,100.00
2023-07-11T18:58:56.976Z,100.00
2023-07-11T19:01:25.283Z,100.00
2023-07-11T19:03:53.855Z,100.00
2023-07-11T19:06:22.409Z,100.00
2023-07-11T19:08:50.665Z,100.00
2023-07-11T19:11:20.392Z,100.00
2023-07-11T19:13:48.866Z,100.00
2023-07-11T19:16:20.544Z,100.00
2023-07-11T19:18:49.170Z,100.00
2023-07-11T19:21:17.541Z,100.00
2023-07-11T19:23:46.400Z,100.00
2023-07-11T19:26:16.837Z,100.00
2023-07-11T19:28:46.892Z,100.00
2023-07-11T19:31:16.930Z,100.00
2023-07-11T19:33:47.381Z,100.00
2023-07-11T19:36:21.160Z,100.00
2023-07-11T19:38:49.729Z,100.00
2023-07-11T19:41:20.559Z,100.00
2023-07-11T19:43:50.389Z,100.00
2023-07-11T19:46:22.265Z,100.00
2023-07-11T19:48:51.836Z,100.00
2023-07-11T19:51:20.143Z,100.00
2023-07-11T19:53:48.383Z,100.00
2023-07-11T19:56:25.123Z,100.00
2023-07-11T19:58:55.618Z,100.00
2023-07-11T20:01:23.977Z,100.00
2023-07-11T20:03:53.175Z,100.00
2023-07-11T20:06:24.541Z,100.00
2023-07-11T20:08:53.152Z,100.00
2023-07-11T20:11:21.688Z,100.00
2023-07-11T20:13:50.025Z,100.00
2023-07-11T20:16:22.830Z,100.00
2023-07-11T20:18:53.582Z,100.00
2023-07-11T20:21:24.327Z,100.00
2023-07-11T20:23:54.372Z,100.00
2023-07-11T20:26:24.205Z,100.00
2023-07-11T20:28:54.227Z,100.00
2023-07-11T20:31:25.025Z,100.00
2023-07-11T20:33:53.589Z,100.00
2023-07-11T20:36:23.795Z,100.00
2023-07-11T20:38:52.829Z,100.00
2023-07-11T20:41:21.430Z,100.00
2023-07-11T20:43:50.868Z,100.00
2023-07-11T20:46:21.671Z,100.00
2023-07-11T20:48:52.549Z,100.00
2023-07-11T20:51:22.155Z,100.00
2023-07-11T20:53:50.611Z,100.00
2023-07-11T20:56:20.335Z,100.00
2023-07-11T20:58:49.544Z,100.00
2023-07-11T21:01:20.067Z,100.00
2023-07-11T21:03:49.266Z,100.00
2023-07-11T21:06:30.518Z,100.00
2023-07-11T21:08:58.845Z,100.00
2023-07-11T21:11:27.228Z,100.00
2023-07-11T21:13:55.704Z,100.00
2023-07-11T21:16:29.075Z,100.00
2023-07-11T21:19:00.652Z,100.00
2023-07-11T21:21:30.843Z,100.00
2023-07-11T21:23:59.307Z,100.00
2023-07-11T21:26:28.493Z,100.00
2023-07-11T21:28:57.967Z,100.00
2023-07-11T21:31:27.829Z,100.00
2023-07-11T21:33:57.088Z,100.00
2023-07-11T21:36:26.474Z,100.00
2023-07-11T21:38:56.547Z,100.00
2023-07-11T21:41:25.029Z,100.00
2023-07-11T21:43:54.265Z,100.00
2023-07-11T21:46:30.434Z,100.00
2023-07-11T21:48:59.580Z,100.00
2023-07-11T21:51:29.024Z,100.00
2023-07-11T21:54:00.063Z,100.00
2023-07-11T21:56:30.954Z,100.00
2023-07-11T21:59:02.310Z,100.00
2023-07-11T22:01:31.928Z,100.00
2023-07-11T22:04:02.000Z,100.00
2023-07-11T22:06:32.131Z,100.00
2023-07-11T22:09:02.420Z,100.00
2023-07-11T22:11:30.959Z,100.00
2023-07-11T22:13:59.359Z,100.00
2023-07-11T22:16:30.804Z,100.00
2023-07-11T22:18:59.583Z,100.00
2023-07-11T22:21:28.639Z,100.00
2023-07-11T22:23:59.178Z,100.00
2023-07-11T22:26:32.083Z,100.00
2023-07-11T22:29:02.656Z,100.00
2023-07-11T22:31:31.920Z,100.00
2023-07-11T22:34:00.506Z,100.00
2023-07-11T22:36:28.869Z,100.00
2023-07-11T22:38:57.210Z,100.00
2023-07-11T22:41:25.642Z,100.00
2023-07-11T22:43:55.397Z,100.00
2023-07-11T22:46:23.813Z,100.00
2023-07-11T22:48:52.544Z,100.00
2023-07-11T22:51:20.906Z,100.00
2023-07-11T22:53:49.960Z,100.00
2023-07-11T22:56:20.552Z,100.00
2023-07-11T22:58:49.003Z,100.00
2023-07-11T23:01:20.576Z,100.00
2023-07-11T23:03:49.091Z,100.00
2023-07-11T23:06:21.171Z,100.00
2023-07-11T23:08:50.428Z,100.00
2023-07-11T23:11:19.222Z,100.00
2023-07-11T23:13:48.155Z,100.00
2023-07-11T23:16:28.523Z,100.00
2023-07-11T23:18:58.442Z,100.00
2023-07-11T23:21:26.875Z,100.00
2023-07-11T23:23:55.831Z,100.00
2023-07-11T23:26:24.743Z,100.00
2023-07-11T23:28:53.818Z,100.00
2023-07-11T23:31:23.639Z,100.00
2023-07-11T23:33:51.964Z,100.00
2023-07-11T23:36:22.750Z,100.00
2023-07-11T23:38:53.280Z,100.00
2023-07-11T23:41:22.452Z,100.00
2023-07-11T23:43:53.222Z,100.00
2023-07-11T23:46:28.233Z,100.00
2023-07-11T23:48:57.233Z,100.00
2023-07-11T23:51:27.020Z,100.00
2023-07-11T23:53:55.764Z,100.00
2023-07-11T23:56:26.663Z,100.00
2023-07-11T23:58:55.321Z,100.00
